Time;durP1;ratioP1;P1;durP2;ratioP2;P2;SDS_P1;SDS_P2;PMS_P1;PMS_P2;Temp;Humidity;BMP_temperature;BMP_pressure;BME280_temperature;BME280_humidity;BME280_pressure;Samples;Min_cycle;Max_cycle;Signal;HPM_P1;HPM_P2
2022/01/16 00:06:12;;;;;;;;;63.67;49.00;;;;;2.48;69.31;102372.78;5039174;28;45358;-59
2022/01/16 00:08:38;;;;;;;;;79.00;50.67;;;;;2.54;69.56;102365.00;5040459;28;45457;-59
2022/01/16 00:11:03;;;;;;;;;61.67;40.33;;;;;2.58;69.60;102353.72;5041374;28;45287;-59
2022/01/16 00:13:29;;;;;;;;;68.00;49.00;;;;;2.62;69.08;102344.19;5040583;28;45834;-60
2022/01/16 00:15:54;;;;;;;;;68.00;51.33;;;;;2.62;69.25;102365.88;5041242;28;45339;-60
2022/01/16 00:18:23;;;;;;;;;67.67;48.00;;;;;2.62;69.49;102373.66;5040470;28;45481;-60
2022/01/16 00:20:49;;;;;;;;;77.00;54.00;;;;;2.63;69.43;102365.00;5040789;28;45452;-60
2022/01/16 00:23:23;;;;;;;;;63.00;46.00;;;;;2.64;68.98;102355.47;5040153;28;45313;-60
2022/01/16 00:25:55;;;;;;;;;63.33;49.67;;;;;2.70;68.96;102365.88;5041172;28;45333;-59
2022/01/16 00:28:21;;;;;;;;;69.67;51.67;;;;;2.70;68.89;102378.88;5040636;28;45380;-60
2022/01/16 00:30:48;;;;;;;;;70.00;48.67;;;;;2.67;68.79;102390.13;5040745;28;45427;-59
2022/01/16 00:33:14;;;;;;;;;68.67;45.67;;;;;2.67;68.62;102407.47;5040570;28;46691;-59
2022/01/16 00:35:40;;;;;;;;;64.67;49.33;;;;;2.65;68.77;102404.88;5023089;28;45431;-60
2022/01/16 00:38:06;;;;;;;;;63.67;46.00;;;;;2.64;68.36;102404.88;5040539;28;45302;-59
2022/01/16 00:40:32;;;;;;;;;71.33;51.00;;;;;2.63;68.74;102385.81;5041173;28;45493;-59
2022/01/16 00:42:58;;;;;;;;;70.33;47.67;;;;;2.61;68.77;102352.88;5040297;28;46196;-60
2022/01/16 00:45:25;;;;;;;;;69.00;51.00;;;;;2.57;69.06;102361.53;5040731;28;45249;-59
2022/01/16 00:47:50;;;;;;;;;70.00;50.67;;;;;2.57;68.13;102369.31;5039561;28;45387;-59
2022/01/16 00:50:16;;;;;;;;;76.00;48.67;;;;;2.55;68.22;102365.88;5033303;28;45473;-59
2022/01/16 00:52:41;;;;;;;;;69.00;50.00;;;;;2.52;68.61;102383.19;5035053;28;46569;-60
2022/01/16 00:55:07;;;;;;;;;69.00;46.67;;;;;2.51;68.60;102378.84;5037555;28;45487;-59
2022/01/16 00:57:33;;;;;;;;;63.00;46.67;;;;;2.50;68.32;102399.66;5037753;28;45451;-59
2022/01/16 00:59:58;;;;;;;;;65.67;51.33;;;;;2.48;68.81;102391.00;5037918;28;45553;-59
2022/01/16 01:02:24;;;;;;;;;74.00;52.00;;;;;2.46;68.80;102435.22;5038411;28;45704;-59
2022/01/16 01:04:50;;;;;;;;;67.33;50.00;;;;;2.52;68.65;102424.81;5039609;28;45327;-58
2022/01/16 01:07:16;;;;;;;;;64.33;44.33;;;;;2.53;68.10;102428.31;5037592;28;45699;-59
2022/01/16 01:09:41;;;;;;;;;52.33;43.33;;;;;2.56;68.43;102422.22;5040044;28;45419;-59
2022/01/16 01:12:09;;;;;;;;;65.00;48.67;;;;;2.58;68.65;102436.97;5039975;28;45458;-59
2022/01/16 01:14:42;;;;;;;;;69.33;55.33;;;;;2.58;68.74;102454.31;5021925;28;45189;-59
2022/01/16 01:17:12;;;;;;;;;77.67;50.67;;;;;2.56;68.83;102417.88;5039701;28;45417;-59
2022/01/16 01:19:38;;;;;;;;;72.67;50.00;;;;;2.54;68.42;102431.78;5038080;28;45405;-59
2022/01/16 01:22:05;;;;;;;;;71.33;50.33;;;;;2.54;68.45;102408.34;5039796;28;45979;-59
2022/01/16 01:24:33;;;;;;;;;78.33;50.00;;;;;2.54;68.58;102361.53;5039154;28;45292;-59
2022/01/16 01:29:28;;;;;;;;;71.00;51.33;;;;;2.57;68.46;102332.91;5039961;28;45317;-59
2022/01/16 01:31:54;;;;;;;;;68.67;52.67;;;;;2.57;68.69;102320.78;5039755;28;46348;-59
2022/01/16 01:34:20;;;;;;;;;75.33;52.67;;;;;2.57;68.87;102314.69;5039496;28;45382;-59
2022/01/16 01:36:48;;;;;;;;;72.33;48.67;;;;;2.55;69.16;102355.47;5039916;28;45381;-59
2022/01/16 01:39:18;;;;;;;;;71.33;47.33;;;;;2.51;69.56;102378.00;5021664;28;45572;-59
2022/01/16 01:41:44;;;;;;;;;59.67;45.33;;;;;2.53;69.45;102389.28;5039555;28;46076;-59
2022/01/16 01:52:22;;;;;;;;;67.00;46.67;;;;;2.57;69.94;102424.81;5037763;28;45469;-58
2022/01/16 01:54:48;;;;;;;;;65.33;45.67;;;;;2.59;70.07;102446.50;5039483;28;45336;-58
2022/01/16 01:57:14;;;;;;;;;57.33;44.33;;;;;2.57;69.81;102443.03;5039321;28;45280;-59
2022/01/16 01:59:39;;;;;;;;;74.67;55.33;;;;;2.58;70.26;102449.09;5039666;28;45245;-59
2022/01/16 02:02:07;;;;;;;;;73.67;53.00;;;;;2.57;70.13;102458.63;5039158;28;45398;-59
2022/01/16 02:04:33;;;;;;;;;61.33;46.33;;;;;2.58;70.02;102464.72;5021360;28;45323;-58
2022/01/16 02:06:58;;;;;;;;;76.33;53.33;;;;;2.60;70.03;102465.56;5039717;28;45303;-59
2022/01/16 02:09:24;;;;;;;;;69.67;51.67;;;;;2.62;70.46;102482.06;5039025;28;45471;-58
2022/01/16 02:11:52;;;;;;;;;76.33;52.67;;;;;2.64;70.12;102482.94;5039258;28;46325;-58
2022/01/16 02:14:32;;;;;;;;;73.33;47.00;;;;;2.62;70.20;102484.66;5038152;28;45417;-58
2022/01/16 02:38:47;;;;;;;;;70.00;51.33;;;;;2.68;70.71;102471.66;5041976;28;45253;-58
2022/01/16 02:41:13;;;;;;;;;55.00;39.67;;;;;2.66;70.61;102466.44;5042584;28;45364;-58
2022/01/16 02:43:45;;;;;;;;;61.75;43.75;;;;;2.70;71.12;102455.19;5039833;28;45546;-58
2022/01/16 02:48:49;;;;;;;;;66.00;51.67;;;;;2.75;70.48;102453.44;5040421;28;45518;-58
2022/01/16 02:51:19;;;;;;;;;68.67;46.33;;;;;2.76;70.14;102446.50;5039130;28;45580;-58
2022/01/16 02:53:49;;;;;;;;;68.33;52.67;;;;;2.78;70.48;102430.03;5041931;28;45356;-59
2022/01/16 02:56:15;;;;;;;;;79.67;53.67;;;;;2.82;70.63;102427.44;5041359;28;45290;-58
2022/01/16 02:58:41;;;;;;;;;72.33;50.67;;;;;2.83;70.58;102427.41;5042175;28;45402;-59
2022/01/16 03:01:07;;;;;;;;;68.00;49.67;;;;;2.90;70.31;102429.16;5042085;28;45431;-58
2022/01/16 03:03:32;;;;;;;;;50.25;44.75;;;;;2.93;70.03;102434.38;5041687;28;46132;-58
2022/01/16 03:05:58;;;;;;;;;74.67;50.67;;;;;2.97;70.28;102435.22;5039239;28;45325;-58
2022/01/16 03:08:24;;;;;;;;;55.25;43.75;;;;;2.99;70.63;102430.88;5041808;28;45261;-58
2022/01/16 03:13:33;;;;;;;;;67.50;49.25;;;;;2.98;70.66;102426.56;5041230;28;45745;-58
2022/01/16 03:16:00;;;;;;;;;70.00;44.33;;;;;2.99;70.69;102433.50;5041906;28;45360;-58
2022/01/16 03:23:35;;;;;;;;;63.00;42.50;;;;;2.94;70.72;102422.22;5041033;28;45328;-58
2022/01/16 03:26:01;;;;;;;;;66.50;45.25;;;;;2.90;70.56;102423.09;5041675;28;45383;-57
2022/01/16 03:28:27;;;;;;;;;63.00;44.00;;;;;2.89;70.67;102410.94;5041750;28;45366;-57
2022/01/16 03:30:54;;;;;;;;;61.50;47.00;;;;;2.91;70.68;102419.63;5041463;28;45510;-57
2022/01/16 03:33:20;;;;;;;;;67.25;49.00;;;;;2.92;70.73;102416.13;5040185;28;45394;-57
2022/01/16 03:35:48;;;;;;;;;68.33;52.00;;;;;2.94;70.61;102412.69;5041117;28;45500;-57
2022/01/16 03:38:14;;;;;;;;;74.00;49.00;;;;;2.94;71.07;102417.03;5041282;28;45599;-57
2022/01/16 03:40:39;;;;;;;;;62.50;46.50;;;;;2.93;70.78;102426.56;5038457;28;45301;-57
2022/01/16 03:43:14;;;;;;;;;64.50;47.50;;;;;2.93;70.82;102434.38;5040590;28;45937;-57
2022/01/16 03:45:45;;;;;;;;;64.75;48.25;;;;;2.99;70.51;102430.88;5038845;28;45342;-58
2022/01/16 03:48:11;;;;;;;;;68.00;50.67;;;;;3.01;71.29;102419.63;5040501;28;45460;-57
2022/01/16 03:50:37;;;;;;;;;56.75;46.75;;;;;3.11;70.55;102415.28;5040705;28;45484;-57
2022/01/16 03:53:03;;;;;;;;;72.00;52.00;;;;;3.15;70.65;102405.69;5038239;28;45453;-58
2022/01/16 03:55:29;;;;;;;;;68.33;51.00;;;;;3.16;70.36;102410.94;5041131;28;45370;-58
2022/01/16 03:57:55;;;;;;;;;63.00;50.00;;;;;3.16;70.21;102417.84;5040983;28;45317;-58
2022/01/16 04:00:20;;;;;;;;;70.33;53.33;;;;;3.18;70.14;102416.13;5041310;28;45311;-58
2022/01/16 04:02:46;;;;;;;;;64.00;46.00;;;;;3.15;70.40;102414.38;5041147;28;45463;-58
2022/01/16 04:05:12;;;;;;;;;77.00;55.33;;;;;3.13;70.34;102410.91;5040907;28;45261;-57
2022/01/16 04:07:37;;;;;;;;;71.33;52.67;;;;;3.14;70.65;102430.88;5040623;28;45269;-57
2022/01/16 04:10:08;;;;;;;;;71.00;51.00;;;;;3.13;70.61;102421.34;5041043;28;45242;-57
2022/01/16 04:12:35;;;;;;;;;61.00;41.67;;;;;3.13;70.68;102431.75;5040518;28;45264;-57
2022/01/16 04:17:27;;;;;;;;;79.00;51.67;;;;;3.15;70.25;102443.00;5040757;28;45314;-57
2022/01/16 04:19:53;;;;;;;;;73.00;52.33;;;;;3.20;70.30;102453.44;5040811;28;45306;-58
2022/01/16 04:22:20;;;;;;;;;69.00;51.00;;;;;3.21;70.18;102463.84;5040371;28;46270;-57
2022/01/16 04:24:46;;;;;;;;;66.00;49.67;;;;;3.21;70.84;102461.25;5040364;28;45375;-57
2022/01/16 04:27:12;;;;;;;;;70.67;50.67;;;;;3.23;70.59;102474.25;5041088;28;45470;-58
2022/01/16 04:29:39;;;;;;;;;67.67;46.00;;;;;3.22;70.30;102472.53;5040518;28;45404;-58
2022/01/16 04:32:05;;;;;;;;;74.33;55.33;;;;;3.20;70.41;102482.09;5040786;28;45438;-58
2022/01/16 04:34:31;;;;;;;;;77.00;52.67;;;;;3.18;70.42;102482.09;5040375;28;45293;-58
2022/01/16 04:36:57;;;;;;;;;76.67;49.33;;;;;3.18;70.34;102489.03;5040381;28;45390;-57
2022/01/16 04:39:31;;;;;;;;;72.00;53.33;;;;;3.16;70.52;102493.34;5040599;28;45284;-57
2022/01/16 04:44:40;;;;;;;;;73.75;52.25;;;;;3.15;70.59;102487.28;5039108;28;45384;-57
2022/01/16 04:47:06;;;;;;;;;72.50;49.75;;;;;3.13;70.12;102480.34;5040572;28;45372;-57
2022/01/16 04:49:31;;;;;;;;;67.67;52.33;;;;;3.11;70.32;102474.28;5040155;28;45276;-57
2022/01/16 04:51:57;;;;;;;;;69.33;50.00;;;;;3.08;70.47;102476.03;5036833;28;46179;-58
2022/01/16 04:54:22;;;;;;;;;69.00;46.00;;;;;3.07;70.43;102460.38;5040318;28;45197;-57
2022/01/16 04:56:48;;;;;;;;;77.50;52.50;;;;;3.05;70.78;102476.00;5040381;28;45233;-58
2022/01/16 04:59:13;;;;;;;;;83.00;52.75;;;;;3.05;70.34;102488.16;5040395;28;45452;-57
2022/01/16 05:01:39;;;;;;;;;72.50;49.25;;;;;3.03;70.22;102495.97;5039924;28;45284;-57
2022/01/16 05:04:04;;;;;;;;;69.00;48.67;;;;;3.03;70.32;102495.09;5040313;28;45258;-57
2022/01/16 05:06:30;;;;;;;;;73.00;48.00;;;;;3.03;70.93;102495.09;5040327;28;46398;-57
2022/01/16 05:08:55;;;;;;;;;68.33;49.00;;;;;3.02;70.90;102490.78;5039888;28;45404;-57
2022/01/16 05:11:25;;;;;;;;;71.33;49.00;;;;;3.01;71.06;102489.03;5040174;28;45485;-57
2022/01/16 05:19:06;;;;;;;;;72.00;50.00;;;;;2.98;71.20;102502.91;5040125;28;45525;-58
2022/01/16 05:21:32;;;;;;;;;71.75;49.00;;;;;2.98;71.35;102505.50;5039633;28;46803;-58
2022/01/16 05:23:58;;;;;;;;;65.33;50.67;;;;;2.97;71.34;102502.91;5039723;28;45394;-57
2022/01/16 05:26:28;;;;;;;;;58.00;44.25;;;;;2.94;71.46;102510.72;5039929;28;45359;-58
2022/01/16 05:28:55;;;;;;;;;79.00;53.33;;;;;2.91;71.62;102514.19;5039905;28;45577;-57
2022/01/16 05:31:21;;;;;;;;;70.25;48.00;;;;;2.91;71.61;102511.56;5036773;28;46372;-58
2022/01/16 05:33:47;;;;;;;;;64.00;46.25;;;;;2.92;71.95;102523.72;5039681;28;45551;-58
2022/01/16 05:36:13;;;;;;;;;45.25;29.00;;;;;2.93;71.53;102530.69;5039816;28;45327;-58
2022/01/16 05:38:38;;;;;;;;;69.00;45.75;;;;;2.92;71.76;102534.13;5040477;28;45420;-58
2022/01/16 05:41:04;;;;;;;;;63.25;48.75;;;;;2.91;71.58;102531.53;5039891;28;46071;-58
2022/01/16 05:43:29;;;;;;;;;68.75;47.75;;;;;2.90;71.52;102524.59;5040448;28;45321;-58
2022/01/16 05:45:55;;;;;;;;;61.75;42.75;;;;;2.95;71.86;102518.53;5040489;28;45381;-58
2022/01/16 05:48:20;;;;;;;;;61.75;43.25;;;;;2.96;71.93;102529.81;5040331;28;45563;-58
2022/01/16 05:50:46;;;;;;;;;72.25;49.50;;;;;2.98;71.91;102548.91;5037984;28;45376;-58
2022/01/16 05:53:11;;;;;;;;;70.50;48.25;;;;;2.96;72.15;102535.03;5028356;28;45300;-58
2022/01/16 05:55:37;;;;;;;;;60.50;45.75;;;;;2.92;71.89;102536.72;5040317;28;45153;-58
2022/01/16 05:58:04;;;;;;;;;49.25;31.00;;;;;2.91;72.20;102541.94;5040115;28;45289;-58
2022/01/16 06:00:30;;;;;;;;;56.00;40.75;;;;;2.93;72.31;102535.91;5039421;28;45240;-58
2022/01/16 06:02:56;;;;;;;;;70.25;51.75;;;;;2.99;72.18;102524.59;5039984;28;45388;-58
2022/01/16 06:05:22;;;;;;;;;58.00;42.00;;;;;3.01;72.17;102518.53;5042172;28;45425;-58
2022/01/16 06:07:53;;;;;;;;;63.25;44.50;;;;;3.04;72.23;102508.13;5043603;28;45295;-58
2022/01/16 06:10:19;;;;;;;;;68.25;50.75;;;;;3.10;72.05;102529.84;5043096;28;46265;-58
2022/01/16 06:12:45;;;;;;;;;59.75;42.00;;;;;3.03;71.35;102542.84;5043541;28;45254;-58
2022/01/16 06:15:11;;;;;;;;;53.25;39.50;;;;;2.98;72.17;102560.19;5043293;28;45367;-58
2022/01/16 06:17:37;;;;;;;;;70.50;42.50;;;;;2.96;72.14;102558.44;5043439;28;45558;-58
2022/01/16 06:20:04;;;;;;;;;66.00;45.75;;;;;2.95;72.14;102562.78;5043133;28;45415;-58
2022/01/16 06:22:29;;;;;;;;;58.25;41.75;;;;;2.95;72.29;102562.78;5042603;28;45475;-58
2022/01/16 06:24:55;;;;;;;;;52.75;35.25;;;;;2.97;72.27;102558.44;5043386;28;45461;-58
2022/01/16 06:27:21;;;;;;;;;40.50;34.00;;;;;2.97;72.73;102562.78;5043393;28;45316;-58
2022/01/16 06:29:46;;;;;;;;;38.50;35.75;;;;;2.98;72.45;102578.41;5043101;28;45553;-58
2022/01/16 06:32:12;;;;;;;;;48.75;36.25;;;;;2.98;72.51;102560.19;5043384;28;45306;-58
2022/01/16 06:34:37;;;;;;;;;36.50;29.75;;;;;2.97;72.97;102563.66;5043192;28;45213;-58
2022/01/16 06:37:03;;;;;;;;;50.25;39.75;;;;;2.99;72.05;102564.50;5042680;28;45168;-58
2022/01/16 06:39:29;;;;;;;;;53.50;32.00;;;;;3.02;72.17;102563.66;5043021;28;46504;-58
2022/01/16 06:41:55;;;;;;;;;46.00;33.00;;;;;3.02;72.06;102577.56;5043087;28;45330;-58
2022/01/16 06:44:21;;;;;;;;;46.00;29.25;;;;;3.02;71.84;102571.47;5043193;28;45392;-58
2022/01/16 06:46:47;;;;;;;;;46.00;31.75;;;;;3.00;72.49;102568.88;5043343;28;45420;-58
2022/01/16 06:49:12;;;;;;;;;40.25;28.00;;;;;3.04;72.37;102570.59;5042611;28;45292;-58
2022/01/16 06:51:38;;;;;;;;;51.00;26.75;;;;;3.05;72.68;102569.72;5042918;28;45287;-58
2022/01/16 06:54:04;;;;;;;;;37.00;27.75;;;;;3.03;72.04;102579.28;5024901;28;45356;-58
2022/01/16 06:56:30;;;;;;;;;43.00;31.25;;;;;3.05;72.50;102582.75;5042937;28;45374;-58
2022/01/16 06:58:57;;;;;;;;;45.75;30.50;;;;;3.08;72.48;102587.97;5042412;28;45956;-58
2022/01/16 07:01:22;;;;;;;;;49.00;35.25;;;;;3.12;72.06;102596.66;5042905;28;45274;-58
2022/01/16 07:03:49;;;;;;;;;44.00;31.00;;;;;3.14;72.00;102605.31;5042613;28;45245;-59
2022/01/16 07:06:15;;;;;;;;;49.50;30.25;;;;;3.16;72.16;102611.44;5042775;28;45271;-59
2022/01/16 07:08:41;;;;;;;;;38.75;34.00;;;;;3.16;72.23;102616.63;5042267;28;45262;-58
2022/01/16 07:11:06;;;;;;;;;52.00;37.25;;;;;3.17;72.83;102613.16;5042764;28;45205;-59
2022/01/16 07:13:32;;;;;;;;;53.75;36.00;;;;;3.23;72.70;102610.53;5042606;28;45308;-58
2022/01/16 07:15:58;;;;;;;;;32.00;25.50;;;;;3.22;71.98;102600.13;5042027;28;45354;-58
2022/01/16 07:18:23;;;;;;;;;23.00;19.50;;;;;3.20;72.53;102605.34;5042363;28;45323;-58
2022/01/16 07:20:49;;;;;;;;;49.75;33.50;;;;;3.22;72.33;102608.81;5042089;28;45311;-58
2022/01/16 07:23:16;;;;;;;;;44.50;32.50;;;;;3.26;72.18;102600.16;5042424;28;45301;-58
2022/01/16 07:25:43;;;;;;;;;36.50;26.00;;;;;3.32;71.79;102599.28;5042598;28;45780;-58
2022/01/16 07:28:09;;;;;;;;;51.75;37.25;;;;;3.35;72.21;102622.72;5023799;28;45544;-58
2022/01/16 07:30:36;;;;;;;;;48.25;31.50;;;;;3.38;71.94;102635.72;5042299;28;45334;-59
2022/01/16 07:33:03;;;;;;;;;39.75;30.00;;;;;3.41;71.93;102638.38;5042132;28;45422;-59
2022/01/16 07:35:28;;;;;;;;;37.50;33.00;;;;;3.45;72.05;102640.09;5042206;28;45395;-58
2022/01/16 07:37:54;;;;;;;;;37.75;29.00;;;;;3.48;71.88;102644.44;5041680;28;45451;-58
2022/01/16 07:40:22;;;;;;;;;37.00;21.50;;;;;3.48;71.60;102658.34;5042174;28;45348;-59
2022/01/16 07:42:48;;;;;;;;;36.00;28.00;;;;;3.50;71.86;102645.31;5042158;28;45488;-58
2022/01/16 07:45:14;;;;;;;;;37.25;25.25;;;;;3.54;71.43;102639.22;5041696;28;45697;-58
2022/01/16 07:47:40;;;;;;;;;39.50;25.25;;;;;3.53;71.66;102634.88;5041850;28;46129;-58
2022/01/16 07:50:07;;;;;;;;;37.50;26.50;;;;;3.50;72.13;102633.16;5041632;28;45182;-58
2022/01/16 07:52:33;;;;;;;;;35.25;25.50;;;;;3.53;71.80;102635.75;5041219;28;45781;-58
2022/01/16 07:54:59;;;;;;;;;35.25;29.50;;;;;3.56;71.76;102638.38;5041856;28;45563;-59
2022/01/16 07:57:24;;;;;;;;;35.00;26.00;;;;;3.59;72.10;102633.16;5041589;28;45927;-58
2022/01/16 07:59:50;;;;;;;;;36.00;23.50;;;;;3.65;72.25;102627.06;5041308;28;45241;-58
2022/01/16 08:02:16;;;;;;;;;33.25;27.00;;;;;3.68;71.71;102629.66;5041357;28;45550;-58
2022/01/16 08:04:42;;;;;;;;;42.00;26.00;;;;;3.70;71.26;102621.84;5041348;28;45558;-58
2022/01/16 08:07:09;;;;;;;;;43.25;30.00;;;;;3.75;71.88;102626.19;5040377;28;45396;-58
2022/01/16 08:09:36;;;;;;;;;30.25;24.75;;;;;3.78;71.24;102613.16;5041162;28;45212;-58
2022/01/16 08:12:02;;;;;;;;;38.25;31.25;;;;;3.85;71.35;102624.44;5041577;28;45626;-58
2022/01/16 08:14:28;;;;;;;;;32.00;22.50;;;;;3.88;71.48;102627.06;5041360;28;45283;-58
2022/01/16 08:16:56;;;;;;;;;31.50;24.25;;;;;3.93;71.54;102633.13;5041474;28;46251;-58
2022/01/16 08:19:24;;;;;;;;;33.75;25.50;;;;;3.96;70.94;102642.69;5041053;28;45368;-58
2022/01/16 08:21:50;;;;;;;;;35.00;23.25;;;;;4.01;71.33;102639.19;5037476;28;46482;-58
2022/01/16 08:24:16;;;;;;;;;34.25;27.25;;;;;4.08;70.99;102637.44;5040895;28;45274;-58
2022/01/16 08:26:42;;;;;;;;;30.25;22.50;;;;;4.13;71.29;102635.72;5033010;28;45634;-58
2022/01/16 08:29:08;;;;;;;;;49.75;32.50;;;;;4.17;71.16;102640.03;5044562;28;45496;-57
2022/01/16 08:31:33;;;;;;;;;31.00;27.00;;;;;4.20;71.02;102645.25;5043235;28;45478;-57
2022/01/16 08:33:59;;;;;;;;;41.00;30.50;;;;;4.22;71.16;102638.28;5041284;28;45466;-58
2022/01/16 08:36:24;;;;;;;;;31.25;25.75;;;;;4.20;71.07;102633.09;5040616;28;45380;-57
2022/01/16 08:38:50;;;;;;;;;30.00;24.75;;;;;4.23;70.99;102631.34;5040166;28;45546;-58
2022/01/16 08:41:16;;;;;;;;;29.25;22.75;;;;;4.30;71.65;102627.84;5043212;28;45487;-58
2022/01/16 08:43:42;;;;;;;;;35.50;27.75;;;;;4.37;70.56;102626.94;5046733;28;45267;-54
2022/01/16 08:46:07;;;;;;;;;32.75;26.75;;;;;4.51;70.62;102630.38;5040390;28;45280;-58
2022/01/16 08:48:33;;;;;;;;;32.75;23.75;;;;;4.58;70.59;102642.53;5045218;28;45409;-59
2022/01/16 08:51:00;;;;;;;;;25.50;22.00;;;;;4.60;70.55;102643.38;5043599;28;45248;-61
2022/01/16 08:53:26;;;;;;;;;28.00;24.50;;;;;4.63;70.23;102648.59;5040832;28;45540;-59
2022/01/16 08:55:52;;;;;;;;;42.25;27.25;;;;;4.69;69.88;102652.91;5041423;28;45304;-59
2022/01/16 08:58:17;;;;;;;;;32.50;25.75;;;;;4.71;70.36;102653.78;5038675;28;45552;-59
2022/01/16 09:00:45;;;;;;;;;36.25;27.00;;;;;4.76;70.58;102662.47;5039025;28;45395;-59
2022/01/16 09:03:11;;;;;;;;;34.50;29.25;;;;;4.78;70.39;102665.94;5036477;28;45577;-59
2022/01/16 09:05:37;;;;;;;;;27.25;22.50;;;;;4.80;69.80;102677.22;5040799;28;45326;-59
2022/01/16 09:08:02;;;;;;;;;31.25;27.75;;;;;4.85;69.99;102682.44;5043056;28;45504;-59
2022/01/16 09:10:28;;;;;;;;;36.25;27.25;;;;;4.87;69.52;102675.47;5040692;28;45555;-58
2022/01/16 09:12:54;;;;;;;;;36.25;28.25;;;;;4.88;69.78;102670.22;5040034;28;45339;-59
2022/01/16 09:15:20;;;;;;;;;35.00;24.50;;;;;4.93;69.93;102665.88;5039594;28;46187;-59
2022/01/16 09:17:46;;;;;;;;;36.00;28.75;;;;;5.00;70.45;102661.47;5038796;28;45743;-59
2022/01/16 09:20:13;;;;;;;;;30.25;25.25;;;;;5.10;69.24;102675.34;5040783;28;45495;-59
2022/01/16 09:22:40;;;;;;;;;32.50;28.25;;;;;5.10;70.38;102680.56;5039666;28;45398;-59
2022/01/16 09:25:07;;;;;;;;;38.00;29.75;;;;;5.07;69.35;102684.09;5024463;28;45969;-59
2022/01/16 09:27:33;;;;;;;;;32.25;24.50;;;;;5.04;70.04;102692.78;5032314;28;45383;-59
2022/01/16 09:29:59;;;;;;;;;23.25;20.00;;;;;5.09;69.76;102698.00;5021249;28;45356;-59
2022/01/16 09:32:26;;;;;;;;;30.75;24.00;;;;;5.09;69.13;102691.91;5008099;28;45562;-59
2022/01/16 09:34:51;;;;;;;;;36.75;24.75;;;;;5.09;69.54;102691.91;5014211;28;46131;-59
2022/01/16 09:37:16;;;;;;;;;34.00;24.75;;;;;5.11;69.73;102693.63;5025240;28;45245;-58
2022/01/16 09:39:42;;;;;;;;;41.75;28.75;;;;;5.13;69.11;102693.59;5023571;28;45492;-59
2022/01/16 09:42:08;;;;;;;;;29.50;20.75;;;;;5.15;69.08;102700.59;5030013;28;45459;-58
2022/01/16 09:44:37;;;;;;;;;32.50;27.50;;;;;5.15;69.80;102702.31;5025699;28;45263;-59
2022/01/16 09:47:03;;;;;;;;;31.25;23.00;;;;;5.14;69.34;102700.59;5025262;28;45700;-58
2022/01/16 09:49:29;;;;;;;;;32.75;24.25;;;;;5.07;69.88;102688.44;5002426;28;45534;-58
2022/01/16 09:51:55;;;;;;;;;26.50;23.25;;;;;4.97;69.42;102690.22;5022360;28;46786;-58
2022/01/16 09:54:24;;;;;;;;;27.00;22.25;;;;;4.91;68.98;102692.88;5023667;28;45988;-58
2022/01/16 09:56:51;;;;;;;;;33.00;25.00;;;;;4.89;69.74;102698.06;5021803;28;45254;-59
2022/01/16 09:59:17;;;;;;;;;28.75;23.50;;;;;4.94;70.00;102706.75;5021175;28;45454;-59
2022/01/16 10:01:43;;;;;;;;;42.75;31.50;;;;;5.12;70.48;102702.31;5024801;28;45384;-58
2022/01/16 10:04:32;;;;;;;;;34.00;27.25;;;;;5.33;69.79;102695.25;5022050;28;45413;-58
2022/01/16 10:07:01;;;;;;;;;32.25;24.00;;;;;5.49;69.75;102702.97;5019338;28;45464;-61
2022/01/16 10:09:27;;;;;;;;;29.25;23.75;;;;;5.64;68.37;102702.03;5023948;28;45502;-58
2022/01/16 10:11:56;;;;;;;;;41.50;30.75;;;;;5.75;68.25;102705.41;5024066;28;45743;-59
2022/01/16 10:14:36;;;;;;;;;32.75;27.25;;;;;5.84;67.92;102698.34;5021844;28;45315;-59
2022/01/16 10:17:19;;;;;;;;;36.00;25.25;;;;;5.83;68.59;102706.22;5021781;28;45412;-59
2022/01/16 10:19:45;;;;;;;;;36.50;21.00;;;;;5.76;67.64;102696.69;5021077;28;45385;-58
2022/01/16 10:22:13;;;;;;;;;36.75;24.50;;;;;5.66;67.97;102695.03;5037335;28;45324;-58
2022/01/16 10:24:40;;;;;;;;;30.75;26.75;;;;;5.59;68.58;102700.28;5040325;28;45439;-58
2022/01/16 10:27:08;;;;;;;;;31.25;25.00;;;;;5.60;68.38;102703.78;5041191;28;45348;-59
2022/01/16 10:29:39;;;;;;;;;26.50;24.75;;;;;5.53;67.42;102710.81;5022475;28;45595;-59
2022/01/16 10:32:12;;;;;;;;;32.75;23.50;;;;;5.53;68.42;102707.31;5040824;28;45604;-58
2022/01/16 10:34:38;;;;;;;;;35.00;27.25;;;;;5.56;67.41;102694.22;5038475;28;45332;-59
2022/01/16 10:37:25;;;;;;;;;26.25;22.25;;;;;5.60;68.23;102698.53;5039164;28;45430;-60
2022/01/16 10:39:57;;;;;;;;;27.75;21.50;;;;;5.64;67.43;102705.50;5039740;28;45382;-58
2022/01/16 10:42:23;;;;;;;;;33.50;24.75;;;;;5.70;67.43;102704.59;5023082;28;45485;-60
2022/01/16 10:45:03;;;;;;;;;20.50;16.25;;;;;5.73;68.30;102701.94;5041318;28;46332;-58
2022/01/16 10:47:37;;;;;;;;;34.50;25.00;;;;;5.71;67.19;102706.31;5035624;28;47164;-59
2022/01/16 10:50:09;;;;;;;;;28.50;25.25;;;;;5.67;67.62;102700.22;5040332;28;45549;-60
2022/01/16 10:53:03;;;;;;;;;26.75;24.25;;;;;5.70;67.30;102691.53;5038138;28;45496;-59
2022/01/16 10:55:36;;;;;;;;;33.50;26.00;;;;;5.71;67.33;102694.13;5032479;28;46548;-59
2022/01/16 10:58:24;;;;;;;;;28.50;23.00;;;;;5.77;67.30;102701.91;5041394;28;45516;-59
2022/01/16 11:01:03;;;;;;;;;29.00;22.00;;;;;5.87;68.18;102697.47;5042347;28;45161;-59
2022/01/16 11:03:37;;;;;;;;;26.75;21.00;;;;;5.99;67.82;102700.00;5043658;28;45341;-59
2022/01/16 11:06:03;;;;;;;;;32.50;29.25;;;;;6.10;67.61;102711.25;5041357;28;45486;-59
2022/01/16 11:08:29;;;;;;;;;30.00;26.00;;;;;6.17;67.80;102704.22;5043388;28;45404;-59
2022/01/16 11:10:58;;;;;;;;;29.75;24.75;;;;;6.19;67.43;102696.34;5043308;28;45456;-59
2022/01/16 11:13:32;;;;;;;;;27.50;21.00;;;;;6.20;66.80;102692.84;5022696;28;45458;-59
2022/01/16 11:16:04;;;;;;;;;33.25;24.00;;;;;6.25;66.76;102691.94;5040680;28;45260;-59
2022/01/16 11:18:31;;;;;;;;;22.50;20.25;;;;;6.34;67.02;102693.59;5038614;28;45500;-59
2022/01/16 11:23:33;;;;;;;;;25.00;22.00;;;;;6.40;66.53;102696.16;5040709;28;45343;-59
2022/01/16 11:26:06;;;;;;;;;31.25;24.00;;;;;6.30;66.38;102691.88;5041643;28;46032;-59
2022/01/16 11:28:33;;;;;;;;;21.50;19.25;;;;;6.28;67.33;102691.03;5040191;28;45464;-59
2022/01/16 11:31:04;;;;;;;;;29.50;19.25;;;;;6.23;67.09;102698.91;5041272;28;45395;-59
2022/01/16 11:33:35;;;;;;;;;29.75;23.75;;;;;6.28;67.50;102702.34;5050604;28;45403;-57
2022/01/16 11:36:13;;;;;;;;;33.50;23.75;;;;;6.33;67.28;102704.94;5042164;28;45393;-59
2022/01/16 11:38:44;;;;;;;;;32.00;22.25;;;;;6.36;67.35;102692.69;5045532;28;45369;-58
2022/01/16 11:41:25;;;;;;;;;17.50;11.50;;;;;6.33;67.48;102699.72;5038591;28;45448;-58
2022/01/16 11:43:53;;;;;;;;;26.50;24.75;;;;;6.40;67.18;102704.88;5038548;28;45725;-58
2022/01/16 11:46:21;;;;;;;;;26.25;19.00;;;;;6.43;67.41;102701.34;5040124;28;46142;-59
2022/01/16 11:48:59;;;;;;;;;29.75;23.25;;;;;6.48;67.65;102701.28;5040622;28;45320;-59
2022/01/16 11:51:39;;;;;;;;;35.25;27.75;;;;;6.53;66.78;102697.72;5040455;28;45553;-58
2022/01/16 11:54:09;;;;;;;;;38.75;25.50;;;;;6.56;66.88;102695.09;5038814;28;45352;-58
2022/01/16 11:56:37;;;;;;;;;35.50;23.00;;;;;6.57;66.98;102693.34;5038570;28;45439;-58
2022/01/16 11:59:12;;;;;;;;;30.50;25.25;;;;;6.57;67.31;102680.25;5040025;28;45320;-59
2022/01/16 12:01:43;;;;;;;;;18.25;14.25;;;;;6.58;67.50;102690.69;5038880;28;45421;-59
2022/01/16 12:04:30;;;;;;;;;26.00;19.25;;;;;6.57;66.95;102690.72;5031518;28;45848;-61
2022/01/16 12:07:15;;;;;;;;;36.00;25.50;;;;;6.57;66.93;102696.81;5017949;28;47391;-61
2022/01/16 12:09:59;;;;;;;;;27.00;22.25;;;;;6.56;67.39;102689.00;5040946;28;45348;-61
2022/01/16 12:12:27;;;;;;;;;25.00;21.75;;;;;6.59;66.90;102691.56;5040342;28;45534;-58
2022/01/16 12:15:07;;;;;;;;;28.50;20.00;;;;;6.59;67.20;102695.03;5038045;28;45411;-60
2022/01/16 12:17:40;;;;;;;;;23.00;22.00;;;;;6.59;67.24;102681.97;5035150;28;45561;-60
2022/01/16 12:40:44;;;;;;;;;23.25;20.25;;;;;6.14;67.79;102689.41;5046004;28;45769;-54